Weather

DAILY 7 DAY TOTAL
onrain

Note: Some stations are located near irrigated fields and may also report irrigation

Alliston Mount Forest Blyth Guelph Grand Bend Strathroy Woodstock Belmont Simcoe Leamington Chatham West Lorne






Woodstock Outdoor FS - Historical Weather Data
Date Max Temp (°C) Min Temp (°C) Avg Temp (°C) Rain (mm) 7Day Rain(mm) Total Rain(mm) Avg RH (%)
6/16/2019 17.8 12.8 15.1 0.6 24.8 207.4 84.8
6/15/2019 18.1 14.9 16.4 1.2 24.2 206.8 81.5
6/14/2019 21.0 9.8 15.3 0.0 23.0 205.6 66.9
6/13/2019 18.6 11.1 14.7 14.6 23.0 205.6 87.5
6/12/2019 22.7 10.5 17.2 0.0 8.4 191.0 55.0
6/11/2019 20.8 9.1 15.3 0.0 25.8 191.0 61.7
6/10/2019 20.8 12.6 17.3 8.4 25.8 191.0 81.0
6/9/2019 26.2 13.5 20.1 0.0 17.4 182.6 59.1
6/8/2019 24.6 12.3 18.9 0.0 18.2 182.6 51.9
6/7/2019 25.9 10.8 19.4 0.0 33.2 182.6 60.4
6/6/2019 24.0 15.2 18.4 0.0 33.2 182.6 81.3
6/5/2019 20.8 15.2 17.9 17.4 33.2 182.6 89.1
6/4/2019 21.9 6.5 14.5 0.0 16.0 165.2 76.4
6/3/2019 14.5 4.7 9.8 0.0 20.4 165.2 67.1
6/2/2019 18.1 7.4 13.8 0.8 20.4 165.2 70.2
6/1/2019 23.3 13.9 17.6 15.0 19.8 164.4 84.4
5/31/2019 22.7 7.2 15.4 0.0 63.0 149.4 65.9
5/30/2019 20.4 11.7 16.2 0.0 63.0 149.4 88.8
5/29/2019 16.4 10.5 12.9 0.2 69.6 149.4 91.3
5/28/2019 16.4 9.5 11.5 4.4 70.2 149.2 92.2
5/27/2019 23.3 8.8 16.9 0.0 65.8 144.8 66.9
5/26/2019 22.3 12.8 17.7 0.2 65.8 144.8 76.4
5/25/2019 27.5 10.9 17.6 58.2 68.0 144.6 90.0
5/24/2019 18.5 8.6 14.0 0.0 9.8 86.4 78.9
5/23/2019 24.7 8.9 17.1 6.6 9.8 86.4 78.6
5/22/2019 16.1 6.4 11.9 0.8 3.2 79.8 71.3
5/21/2019 18.3 2.6 11.1 0.0 2.8 79.0 65.2
5/20/2019 15.4 5.1 11.7 0.0 2.8 79.0 83.8
5/19/2019 27.3 8.0 17.2 2.4 8.4 79.0 75.2
5/18/2019 17.1 4.3 10.7 0.0 8.6 76.6 73.5
5/17/2019 17.2 7.9 13.5 0.0 8.6 76.6 72.3
5/16/2019 18.3 4.7 13.3 0.0 16.8 76.6 68.4
5/15/2019 20.2 5.0 12.6 0.4 28.2 76.6 65.9
5/14/2019 16.1 5.9 9.7 0.0 27.8 76.2 74.4
5/13/2019 7.7 4.2 5.9 5.6 38.6 76.2 93.3
5/12/2019 8.6 4.7 6.7 2.6 34.6 70.6 83.2
5/11/2019 11.3 0.6 7.1 0.0 32.0 68.0 70.7
5/10/2019 16.8 3.5 10.2 8.2 32.8 68.0 87.4
5/9/2019 20.5 7.0 13.1 11.4 38.6 59.8 71.5
5/8/2019 11.7 3.3 8.0 0.0 28.0 48.4 54.5
5/7/2019 13.6 6.2 9.0 10.8 48.4 48.4 76.1
5/6/2019 20.2 6.7 13.7 1.6 41.0 37.6 79.0
5/5/2019 19.4 5.9 12.6 0.0 41.8 36.0 73.7
5/4/2019 13.2 8.2 10.1 0.8 42.8 36.0 92.7
5/3/2019 13.3 7.0 9.9 14.0 42.0 35.2 93.3
5/2/2019 18.7 6.0 11.3 0.8 45.4 21.2 85.7
5/1/2019 15.8 4.2 8.9 20.4 44.6 20.4 92.5